sensor_id;sensor_type;location;lat;lon;timestamp;pressure;altitude;pressure_sealevel;temperature;humidity
19884;BME280;10104;50.732;10.174;2023-07-08T00:01:11;98144.69;;;18.84;54.50
19884;BME280;10104;50.732;10.174;2023-07-08T00:03:33;98148.31;;;18.78;54.60
19884;BME280;10104;50.732;10.174;2023-07-08T00:05:55;98143.88;;;18.60;55.34
19884;BME280;10104;50.732;10.174;2023-07-08T00:08:20;98144.09;;;18.58;54.94
19884;BME280;10104;50.732;10.174;2023-07-08T00:10:41;98142.81;;;18.61;55.20
19884;BME280;10104;50.732;10.174;2023-07-08T00:13:03;98144.56;;;18.67;55.31
19884;BME280;10104;50.732;10.174;2023-07-08T00:15:27;98150.88;;;18.61;54.98
19884;BME280;10104;50.732;10.174;2023-07-08T00:17:50;98147.69;;;18.52;55.48
19884;BME280;10104;50.732;10.174;2023-07-08T00:20:21;98140.84;;;18.56;55.23
19884;BME280;10104;50.732;10.174;2023-07-08T00:22:43;98143.72;;;18.43;55.60
19884;BME280;10104;50.732;10.174;2023-07-08T00:25:08;98142.69;;;18.44;55.74
19884;BME280;10104;50.732;10.174;2023-07-08T00:27:30;98141.69;;;18.27;56.50
19884;BME280;10104;50.732;10.174;2023-07-08T00:29:51;98136.22;;;18.22;56.33
19884;BME280;10104;50.732;10.174;2023-07-08T00:32:14;98141.84;;;18.21;56.34
19884;BME280;10104;50.732;10.174;2023-07-08T00:34:36;98139.16;;;18.21;55.86
19884;BME280;10104;50.732;10.174;2023-07-08T00:36:58;98139.72;;;18.23;56.22
19884;BME280;10104;50.732;10.174;2023-07-08T00:39:19;98142.56;;;17.86;59.20
19884;BME280;10104;50.732;10.174;2023-07-08T00:41:42;98149.75;;;17.56;59.54
19884;BME280;10104;50.732;10.174;2023-07-08T00:44:04;98152.50;;;17.49;59.20
19884;BME280;10104;50.732;10.174;2023-07-08T00:48:53;98151.16;;;17.58;57.99
19884;BME280;10104;50.732;10.174;2023-07-08T00:51:18;98152.16;;;17.64;57.78
19884;BME280;10104;50.732;10.174;2023-07-08T00:53:41;98147.00;;;17.62;57.46
19884;BME280;10104;50.732;10.174;2023-07-08T00:56:07;98141.78;;;17.67;57.66
19884;BME280;10104;50.732;10.174;2023-07-08T00:58:43;98148.78;;;17.50;59.02
19884;BME280;10104;50.732;10.174;2023-07-08T01:01:07;98147.25;;;17.24;60.59
19884;BME280;10104;50.732;10.174;2023-07-08T01:03:28;98150.28;;;17.10;60.98
19884;BME280;10104;50.732;10.174;2023-07-08T01:05:51;98146.50;;;17.17;59.45
19884;BME280;10104;50.732;10.174;2023-07-08T01:08:13;98152.47;;;17.19;59.52
19884;BME280;10104;50.732;10.174;2023-07-08T01:10:46;98146.22;;;17.25;58.79
19884;BME280;10104;50.732;10.174;2023-07-08T01:13:11;98144.56;;;17.24;58.70
19884;BME280;10104;50.732;10.174;2023-07-08T01:15:39;98147.72;;;17.21;58.37
19884;BME280;10104;50.732;10.174;2023-07-08T01:18:02;98141.38;;;16.97;60.89
19884;BME280;10104;50.732;10.174;2023-07-08T01:20:24;98139.00;;;16.89;60.59
19884;BME280;10104;50.732;10.174;2023-07-08T01:22:46;98139.97;;;16.77;61.68
19884;BME280;10104;50.732;10.174;2023-07-08T01:25:09;98134.91;;;16.87;60.34
19884;BME280;10104;50.732;10.174;2023-07-08T01:27:34;98122.50;;;16.74;61.89
19884;BME280;10104;50.732;10.174;2023-07-08T01:29:56;98123.78;;;16.72;61.79
19884;BME280;10104;50.732;10.174;2023-07-08T01:32:18;98119.66;;;16.69;61.28
19884;BME280;10104;50.732;10.174;2023-07-08T01:34:40;98117.34;;;16.73;60.75
19884;BME280;10104;50.732;10.174;2023-07-08T01:37:04;98122.00;;;16.59;61.76
19884;BME280;10104;50.732;10.174;2023-07-08T01:39:28;98120.59;;;16.56;61.08
19884;BME280;10104;50.732;10.174;2023-07-08T01:41:50;98123.47;;;16.55;61.25
19884;BME280;10104;50.732;10.174;2023-07-08T01:44:31;98126.25;;;16.42;62.59
19884;BME280;10104;50.732;10.174;2023-07-08T01:46:56;98121.22;;;16.34;63.72
19884;BME280;10104;50.732;10.174;2023-07-08T01:49:19;98122.16;;;16.21;63.36
19884;BME280;10104;50.732;10.174;2023-07-08T01:51:41;98126.06;;;16.18;63.62
19884;BME280;10104;50.732;10.174;2023-07-08T01:54:03;98122.50;;;16.25;62.79
19884;BME280;10104;50.732;10.174;2023-07-08T01:56:24;98116.19;;;16.19;63.48
19884;BME280;10104;50.732;10.174;2023-07-08T01:58:46;98116.59;;;16.23;63.01
19884;BME280;10104;50.732;10.174;2023-07-08T02:01:08;98119.03;;;16.24;62.62
19884;BME280;10104;50.732;10.174;2023-07-08T02:03:29;98121.88;;;16.29;62.79
19884;BME280;10104;50.732;10.174;2023-07-08T02:05:51;98120.81;;;16.05;64.74
19884;BME280;10104;50.732;10.174;2023-07-08T02:08:13;98121.84;;;15.80;65.11
19884;BME280;10104;50.732;10.174;2023-07-08T02:10:34;98119.41;;;16.03;63.71
19884;BME280;10104;50.732;10.174;2023-07-08T02:12:56;98114.41;;;15.82;65.09
19884;BME280;10104;50.732;10.174;2023-07-08T02:15:18;98124.34;;;15.68;65.62
19884;BME280;10104;50.732;10.174;2023-07-08T02:17:39;98113.75;;;15.86;64.27
19884;BME280;10104;50.732;10.174;2023-07-08T02:20:01;98125.56;;;15.72;64.66
19884;BME280;10104;50.732;10.174;2023-07-08T02:22:22;98127.72;;;15.57;66.33
19884;BME280;10104;50.732;10.174;2023-07-08T02:24:44;98124.34;;;15.68;64.48
19884;BME280;10104;50.732;10.174;2023-07-08T02:27:05;98121.88;;;15.73;64.12
19884;BME280;10104;50.732;10.174;2023-07-08T02:29:27;98115.28;;;15.75;63.51
19884;BME280;10104;50.732;10.174;2023-07-08T02:31:49;98118.38;;;15.72;64.04
19884;BME280;10104;50.732;10.174;2023-07-08T02:34:10;98119.38;;;15.33;67.84
19884;BME280;10104;50.732;10.174;2023-07-08T02:36:33;98112.81;;;15.36;66.26
19884;BME280;10104;50.732;10.174;2023-07-08T02:38:55;98103.50;;;15.45;65.68
19884;BME280;10104;50.732;10.174;2023-07-08T02:41:17;98111.31;;;15.47;65.56
19884;BME280;10104;50.732;10.174;2023-07-08T02:43:39;98112.69;;;15.18;68.48
19884;BME280;10104;50.732;10.174;2023-07-08T02:46:00;98117.53;;;15.34;66.87
19884;BME280;10104;50.732;10.174;2023-07-08T02:48:22;98118.88;;;15.12;69.14
19884;BME280;10104;50.732;10.174;2023-07-08T02:50:43;98120.16;;;14.96;68.87
19884;BME280;10104;50.732;10.174;2023-07-08T02:53:05;98127.09;;;15.04;67.75
19884;BME280;10104;50.732;10.174;2023-07-08T02:55:26;98128.09;;;15.16;66.64
19884;BME280;10104;50.732;10.174;2023-07-08T02:57:48;98123.78;;;15.15;67.06
19884;BME280;10104;50.732;10.174;2023-07-08T03:00:10;98124.47;;;14.97;68.65
19884;BME280;10104;50.732;10.174;2023-07-08T03:02:31;98137.56;;;15.12;67.37
19884;BME280;10104;50.732;10.174;2023-07-08T03:04:53;98139.13;;;15.19;66.99
19884;BME280;10104;50.732;10.174;2023-07-08T03:07:16;98144.03;;;15.29;66.46
19884;BME280;10104;50.732;10.174;2023-07-08T03:09:38;98141.38;;;15.29;65.92
19884;BME280;10104;50.732;10.174;2023-07-08T03:12:02;98135.41;;;15.27;65.54
19884;BME280;10104;50.732;10.174;2023-07-08T03:14:24;98134.25;;;15.16;67.57
19884;BME280;10104;50.732;10.174;2023-07-08T03:16:45;98137.34;;;15.00;68.24
19884;BME280;10104;50.732;10.174;2023-07-08T03:19:10;98138.25;;;14.81;71.00
19884;BME280;10104;50.732;10.174;2023-07-08T03:26:45;98142.66;;;15.07;66.70
19884;BME280;10104;50.732;10.174;2023-07-08T03:29:13;98146.19;;;15.01;67.20
19884;BME280;10104;50.732;10.174;2023-07-08T03:31:35;98149.44;;;15.09;66.66
19884;BME280;10104;50.732;10.174;2023-07-08T03:33:57;98148.59;;;15.15;66.20
19884;BME280;10104;50.732;10.174;2023-07-08T03:36:19;98153.28;;;15.20;65.56
19884;BME280;10104;50.732;10.174;2023-07-08T03:38:44;98151.63;;;15.25;66.29
19884;BME280;10104;50.732;10.174;2023-07-08T03:41:06;98154.31;;;15.19;67.19
19884;BME280;10104;50.732;10.174;2023-07-08T03:43:27;98155.81;;;15.02;68.65
19884;BME280;10104;50.732;10.174;2023-07-08T03:45:49;98156.69;;;14.82;70.16
19884;BME280;10104;50.732;10.174;2023-07-08T03:48:11;98157.28;;;14.91;69.14
19884;BME280;10104;50.732;10.174;2023-07-08T03:50:32;98162.41;;;14.99;68.00
19884;BME280;10104;50.732;10.174;2023-07-08T03:52:55;98162.78;;;15.09;67.11
19884;BME280;10104;50.732;10.174;2023-07-08T03:55:17;98164.69;;;14.82;70.92
19884;BME280;10104;50.732;10.174;2023-07-08T03:57:40;98171.84;;;14.95;68.74
19884;BME280;10104;50.732;10.174;2023-07-08T04:00:01;98168.13;;;15.03;67.75
19884;BME280;10104;50.732;10.174;2023-07-08T04:02:23;98171.97;;;15.20;67.46
19884;BME280;10104;50.732;10.174;2023-07-08T04:04:44;98165.63;;;15.14;68.42
19884;BME280;10104;50.732;10.174;2023-07-08T04:07:08;98173.47;;;15.03;69.40
19884;BME280;10104;50.732;10.174;2023-07-08T04:09:29;98172.22;;;15.12;67.97
19884;BME280;10104;50.732;10.174;2023-07-08T04:11:51;98167.28;;;15.09;68.22
19884;BME280;10104;50.732;10.174;2023-07-08T04:14:12;98173.84;;;15.13;68.28
19884;BME280;10104;50.732;10.174;2023-07-08T04:16:56;98170.13;;;15.20;67.26
19884;BME280;10104;50.732;10.174;2023-07-08T04:19:19;98168.91;;;15.16;69.31
19884;BME280;10104;50.732;10.174;2023-07-08T04:21:42;98163.94;;;15.26;68.34
19884;BME280;10104;50.732;10.174;2023-07-08T04:24:04;98170.69;;;15.35;68.03
19884;BME280;10104;50.732;10.174;2023-07-08T04:26:25;98174.56;;;15.39;67.76
19884;BME280;10104;50.732;10.174;2023-07-08T04:28:47;98180.38;;;15.30;69.82
19884;BME280;10104;50.732;10.174;2023-07-08T04:31:08;98188.97;;;15.25;70.79
19884;BME280;10104;50.732;10.174;2023-07-08T04:33:30;98182.38;;;15.41;68.92
19884;BME280;10104;50.732;10.174;2023-07-08T04:35:52;98189.94;;;15.44;69.21
19884;BME280;10104;50.732;10.174;2023-07-08T04:38:23;98187.25;;;15.57;67.97
19884;BME280;10104;50.732;10.174;2023-07-08T04:40:45;98178.41;;;15.63;67.38
19884;BME280;10104;50.732;10.174;2023-07-08T04:43:06;98191.53;;;15.65;68.48
19884;BME280;10104;50.732;10.174;2023-07-08T04:45:28;98187.56;;;15.74;67.60
19884;BME280;10104;50.732;10.174;2023-07-08T04:47:49;98188.81;;;15.78;68.05
19884;BME280;10104;50.732;10.174;2023-07-08T04:50:14;98187.13;;;15.84;67.65
19884;BME280;10104;50.732;10.174;2023-07-08T04:52:36;98189.56;;;15.92;67.55
19884;BME280;10104;50.732;10.174;2023-07-08T04:54:57;98181.88;;;16.02;67.28
19884;BME280;10104;50.732;10.174;2023-07-08T04:57:18;98183.69;;;16.08;67.13
19884;BME280;10104;50.732;10.174;2023-07-08T04:59:42;98174.16;;;16.18;67.33
19884;BME280;10104;50.732;10.174;2023-07-08T05:02:03;98171.06;;;16.22;67.05
19884;BME280;10104;50.732;10.174;2023-07-08T05:04:25;98166.28;;;16.24;68.05
19884;BME280;10104;50.732;10.174;2023-07-08T05:06:47;98165.16;;;16.13;69.95
19884;BME280;10104;50.732;10.174;2023-07-08T05:09:09;98162.22;;;16.21;69.31
19884;BME280;10104;50.732;10.174;2023-07-08T05:11:31;98157.34;;;16.36;68.63
19884;BME280;10104;50.732;10.174;2023-07-08T05:13:53;98165.94;;;16.45;67.87
19884;BME280;10104;50.732;10.174;2023-07-08T05:16:14;98172.66;;;16.54;67.86
19884;BME280;10104;50.732;10.174;2023-07-08T05:18:36;98164.31;;;16.69;67.68
19884;BME280;10104;50.732;10.174;2023-07-08T05:20:57;98168.50;;;16.83;67.58
19884;BME280;10104;50.732;10.174;2023-07-08T05:23:19;98170.00;;;16.97;67.40
19884;BME280;10104;50.732;10.174;2023-07-08T05:25:41;98169.41;;;16.95;67.15
19884;BME280;10104;50.732;10.174;2023-07-08T05:28:02;98168.66;;;16.88;67.75
19884;BME280;10104;50.732;10.174;2023-07-08T05:30:23;98171.25;;;16.94;67.49
19884;BME280;10104;50.732;10.174;2023-07-08T05:32:45;98173.19;;;17.06;67.41
19884;BME280;10104;50.732;10.174;2023-07-08T05:35:07;98176.47;;;17.08;67.80
19884;BME280;10104;50.732;10.174;2023-07-08T05:37:31;98187.75;;;17.10;69.81
19884;BME280;10104;50.732;10.174;2023-07-08T05:39:52;98176.53;;;17.19;69.73
19884;BME280;10104;50.732;10.174;2023-07-08T05:42:14;98174.00;;;17.24;70.46
19884;BME280;10104;50.732;10.174;2023-07-08T05:44:35;98178.19;;;17.38;69.55
19884;BME280;10104;50.732;10.174;2023-07-08T05:46:57;98181.28;;;17.54;69.68
19884;BME280;10104;50.732;10.174;2023-07-08T05:49:18;98174.19;;;17.59;69.29
19884;BME280;10104;50.732;10.174;2023-07-08T05:51:40;98177.50;;;17.61;70.91
19884;BME280;10104;50.732;10.174;2023-07-08T05:54:02;98170.13;;;17.75;69.41
19884;BME280;10104;50.732;10.174;2023-07-08T05:56:23;98165.41;;;17.89;69.94
19884;BME280;10104;50.732;10.174;2023-07-08T05:58:45;98163.44;;;17.96;69.96
19884;BME280;10104;50.732;10.174;2023-07-08T06:01:06;98165.09;;;18.08;69.00
19884;BME280;10104;50.732;10.174;2023-07-08T06:03:28;98169.44;;;18.21;69.41
19884;BME280;10104;50.732;10.174;2023-07-08T06:05:49;98162.59;;;18.37;68.50
19884;BME280;10104;50.732;10.174;2023-07-08T06:08:11;98169.72;;;18.54;69.05
19884;BME280;10104;50.732;10.174;2023-07-08T06:10:33;98171.41;;;18.67;68.74
19884;BME280;10104;50.732;10.174;2023-07-08T06:12:54;98168.50;;;18.69;69.24
19884;BME280;10104;50.732;10.174;2023-07-08T06:15:16;98171.63;;;18.89;68.66
19884;BME280;10104;50.732;10.174;2023-07-08T06:17:37;98180.63;;;18.94;67.92
19884;BME280;10104;50.732;10.174;2023-07-08T06:19:59;98187.13;;;19.10;67.85
19884;BME280;10104;50.732;10.174;2023-07-08T06:22:20;98186.31;;;19.21;67.23
19884;BME280;10104;50.732;10.174;2023-07-08T06:25:02;98177.28;;;19.39;65.87
19884;BME280;10104;50.732;10.174;2023-07-08T06:27:24;98172.97;;;19.50;65.36
19884;BME280;10104;50.732;10.174;2023-07-08T06:29:46;98179.81;;;19.57;65.47
19884;BME280;10104;50.732;10.174;2023-07-08T06:32:08;98178.31;;;19.90;61.43
19884;BME280;10104;50.732;10.174;2023-07-08T06:34:29;98172.88;;;20.01;61.00
19884;BME280;10104;50.732;10.174;2023-07-08T06:36:51;98169.25;;;20.24;58.94
19884;BME280;10104;50.732;10.174;2023-07-08T06:39:12;98162.25;;;20.23;57.51
19884;BME280;10104;50.732;10.174;2023-07-08T06:41:34;98162.25;;;20.23;57.05
19884;BME280;10104;50.732;10.174;2023-07-08T06:43:55;98159.75;;;20.50;54.68
19884;BME280;10104;50.732;10.174;2023-07-08T06:46:17;98165.38;;;20.65;53.83
19884;BME280;10104;50.732;10.174;2023-07-08T06:48:40;98165.75;;;20.90;54.20
19884;BME280;10104;50.732;10.174;2023-07-08T06:51:02;98165.31;;;21.15;52.21
19884;BME280;10104;50.732;10.174;2023-07-08T06:53:23;98169.47;;;21.45;49.87
19884;BME280;10104;50.732;10.174;2023-07-08T06:55:45;98168.56;;;21.61;49.87
19884;BME280;10104;50.732;10.174;2023-07-08T06:58:07;98170.88;;;21.74;48.84
19884;BME280;10104;50.732;10.174;2023-07-08T07:00:28;98166.97;;;21.87;47.20
19884;BME280;10104;50.732;10.174;2023-07-08T07:02:50;98158.34;;;22.11;46.79
19884;BME280;10104;50.732;10.174;2023-07-08T07:05:11;98157.81;;;22.41;46.60
19884;BME280;10104;50.732;10.174;2023-07-08T07:07:33;98158.25;;;22.65;45.85
19884;BME280;10104;50.732;10.174;2023-07-08T07:09:56;98162.53;;;22.93;46.02
19884;BME280;10104;50.732;10.174;2023-07-08T07:12:17;98160.78;;;23.14;46.11
19884;BME280;10104;50.732;10.174;2023-07-08T07:14:39;98166.13;;;23.51;46.27
19884;BME280;10104;50.732;10.174;2023-07-08T07:17:04;98170.25;;;23.84;45.10
19884;BME280;10104;50.732;10.174;2023-07-08T07:19:29;98162.72;;;23.96;44.32
19884;BME280;10104;50.732;10.174;2023-07-08T07:21:51;98153.84;;;24.21;43.06
19884;BME280;10104;50.732;10.174;2023-07-08T07:24:12;98158.19;;;24.52;41.96
19884;BME280;10104;50.732;10.174;2023-07-08T07:26:34;98160.06;;;24.77;41.09
19884;BME280;10104;50.732;10.174;2023-07-08T07:28:57;98158.44;;;25.01;41.28
19884;BME280;10104;50.732;10.174;2023-07-08T07:31:19;98169.47;;;25.35;41.07
19884;BME280;10104;50.732;10.174;2023-07-08T07:33:40;98168.59;;;25.55;41.27
19884;BME280;10104;50.732;10.174;2023-07-08T07:36:02;98160.66;;;25.73;41.02
19884;BME280;10104;50.732;10.174;2023-07-08T07:38:24;98161.81;;;26.06;39.71
19884;BME280;10104;50.732;10.174;2023-07-08T07:40:52;98171.75;;;26.21;39.29
19884;BME280;10104;50.732;10.174;2023-07-08T07:43:13;98172.94;;;26.49;39.17
19884;BME280;10104;50.732;10.174;2023-07-08T07:45:35;98174.94;;;26.72;37.43
19884;BME280;10104;50.732;10.174;2023-07-08T07:47:57;98170.75;;;27.14;37.78
19884;BME280;10104;50.732;10.174;2023-07-08T07:50:18;98185.09;;;27.43;37.60
19884;BME280;10104;50.732;10.174;2023-07-08T07:52:40;98182.56;;;27.75;36.88
19884;BME280;10104;50.732;10.174;2023-07-08T07:55:02;98177.88;;;28.00;36.65
19884;BME280;10104;50.732;10.174;2023-07-08T07:57:25;98173.19;;;28.24;36.05
19884;BME280;10104;50.732;10.174;2023-07-08T07:59:46;98176.41;;;28.45;37.06
19884;BME280;10104;50.732;10.174;2023-07-08T08:02:08;98164.53;;;28.87;34.76
19884;BME280;10104;50.732;10.174;2023-07-08T08:04:30;98165.38;;;29.15;34.60
19884;BME280;10104;50.732;10.174;2023-07-08T08:06:52;98167.53;;;29.45;34.76
19884;BME280;10104;50.732;10.174;2023-07-08T08:09:13;98163.47;;;29.70;33.74
19884;BME280;10104;50.732;10.174;2023-07-08T08:11:35;98174.09;;;29.99;33.92
19884;BME280;10104;50.732;10.174;2023-07-08T08:13:56;98173.19;;;30.26;33.72
19884;BME280;10104;50.732;10.174;2023-07-08T08:16:20;98176.13;;;30.29;33.73
19884;BME280;10104;50.732;10.174;2023-07-08T08:18:42;98182.59;;;30.55;33.25
19884;BME280;10104;50.732;10.174;2023-07-08T08:21:04;98177.13;;;30.78;33.84
19884;BME280;10104;50.732;10.174;2023-07-08T08:23:25;98184.91;;;30.62;33.77
19884;BME280;10104;50.732;10.174;2023-07-08T08:25:47;98180.00;;;30.73;33.01
19884;BME280;10104;50.732;10.174;2023-07-08T08:28:08;98195.78;;;30.76;34.61
19884;BME280;10104;50.732;10.174;2023-07-08T08:30:31;98190.78;;;31.00;33.68
19884;BME280;10104;50.732;10.174;2023-07-08T08:32:52;98188.72;;;31.06;33.63
19884;BME280;10104;50.732;10.174;2023-07-08T08:35:15;98194.72;;;31.08;33.03
19884;BME280;10104;50.732;10.174;2023-07-08T08:37:37;98194.56;;;31.13;32.25
19884;BME280;10104;50.732;10.174;2023-07-08T08:39:58;98194.19;;;31.28;32.82
19884;BME280;10104;50.732;10.174;2023-07-08T08:42:30;98189.06;;;31.44;32.86
19884;BME280;10104;50.732;10.174;2023-07-08T08:44:54;98191.44;;;31.67;32.21
19884;BME280;10104;50.732;10.174;2023-07-08T08:47:38;98196.97;;;31.93;31.56
19884;BME280;10104;50.732;10.174;2023-07-08T08:52:46;98195.25;;;32.23;31.23
19884;BME280;10104;50.732;10.174;2023-07-08T08:55:12;98193.66;;;32.13;30.64
19884;BME280;10104;50.732;10.174;2023-07-08T09:01:07;98196.53;;;32.60;30.28
19884;BME280;10104;50.732;10.174;2023-07-08T09:03:36;98194.16;;;32.76;30.63
19884;BME280;10104;50.732;10.174;2023-07-08T09:05:59;98193.78;;;32.86;29.90
19884;BME280;10104;50.732;10.174;2023-07-08T09:08:33;98201.72;;;32.87;30.54
19884;BME280;10104;50.732;10.174;2023-07-08T09:13:37;98185.66;;;33.53;28.91
19884;BME280;10104;50.732;10.174;2023-07-08T09:16:06;98184.81;;;33.61;29.60
19884;BME280;10104;50.732;10.174;2023-07-08T09:18:35;98183.03;;;33.95;27.99
19884;BME280;10104;50.732;10.174;2023-07-08T09:20:58;98181.78;;;34.34;28.08
19884;BME280;10104;50.732;10.174;2023-07-08T09:23:29;98184.72;;;34.08;28.19
19884;BME280;10104;50.732;10.174;2023-07-08T09:26:10;98179.69;;;34.10;27.39
19884;BME280;10104;50.732;10.174;2023-07-08T09:28:39;98187.16;;;34.51;27.96
19884;BME280;10104;50.732;10.174;2023-07-08T09:31:01;98183.19;;;34.61;28.34
19884;BME280;10104;50.732;10.174;2023-07-08T09:33:24;98183.88;;;34.37;27.73
19884;BME280;10104;50.732;10.174;2023-07-08T09:35:48;98180.63;;;33.93;28.12
19884;BME280;10104;50.732;10.174;2023-07-08T09:38:15;98182.00;;;33.79;28.25
19884;BME280;10104;50.732;10.174;2023-07-08T09:40:37;98187.19;;;33.80;28.84
19884;BME280;10104;50.732;10.174;2023-07-08T09:43:15;98180.47;;;33.60;28.63
19884;BME280;10104;50.732;10.174;2023-07-08T09:45:46;98192.03;;;33.45;29.44
19884;BME280;10104;50.732;10.174;2023-07-08T09:48:16;98183.53;;;33.59;28.20
19884;BME280;10104;50.732;10.174;2023-07-08T09:50:38;98185.56;;;33.79;27.72
19884;BME280;10104;50.732;10.174;2023-07-08T09:52:59;98186.31;;;33.88;28.21
19884;BME280;10104;50.732;10.174;2023-07-08T09:55:23;98193.50;;;33.34;28.74
19884;BME280;10104;50.732;10.174;2023-07-08T09:57:46;98194.50;;;33.67;28.39
19884;BME280;10104;50.732;10.174;2023-07-08T10:00:12;98192.59;;;33.21;27.56
19884;BME280;10104;50.732;10.174;2023-07-08T10:02:51;98190.06;;;33.46;27.81
19884;BME280;10104;50.732;10.174;2023-07-08T10:05:27;98192.91;;;33.11;27.92
19884;BME280;10104;50.732;10.174;2023-07-08T10:07:56;98192.97;;;32.94;27.81
19884;BME280;10104;50.732;10.174;2023-07-08T10:10:24;98204.44;;;32.62;27.79
19884;BME280;10104;50.732;10.174;2023-07-08T10:12:58;98195.59;;;32.65;27.85
19884;BME280;10104;50.732;10.174;2023-07-08T10:15:27;98189.28;;;32.64;28.54
19884;BME280;10104;50.732;10.174;2023-07-08T10:17:52;98189.06;;;33.04;28.33
19884;BME280;10104;50.732;10.174;2023-07-08T10:20:15;98177.81;;;32.88;28.31
19884;BME280;10104;50.732;10.174;2023-07-08T10:25:44;98175.44;;;33.62;27.68
19884;BME280;10104;50.732;10.174;2023-07-08T10:31:01;98172.47;;;34.47;27.66
19884;BME280;10104;50.732;10.174;2023-07-08T10:33:42;98174.66;;;34.54;26.59
19884;BME280;10104;50.732;10.174;2023-07-08T10:44:03;98161.53;;;34.18;26.06
19884;BME280;10104;50.732;10.174;2023-07-08T10:49:28;98171.72;;;34.17;26.39
19884;BME280;10104;50.732;10.174;2023-07-08T10:51:59;98174.59;;;34.00;26.06
19884;BME280;10104;50.732;10.174;2023-07-08T11:00:16;98168.66;;;33.89;26.61
19884;BME280;10104;50.732;10.174;2023-07-08T11:03:15;98166.41;;;33.91;25.73
19884;BME280;10104;50.732;10.174;2023-07-08T11:05:43;98165.53;;;33.99;26.18
19884;BME280;10104;50.732;10.174;2023-07-08T11:08:08;98162.25;;;34.47;25.61
19884;BME280;10104;50.732;10.174;2023-07-08T11:10:38;98156.44;;;34.49;25.64
19884;BME280;10104;50.732;10.174;2023-07-08T11:13:12;98151.97;;;34.77;25.61
19884;BME280;10104;50.732;10.174;2023-07-08T11:15:43;98149.66;;;34.46;25.85
19884;BME280;10104;50.732;10.174;2023-07-08T11:18:13;98151.38;;;34.72;26.00
19884;BME280;10104;50.732;10.174;2023-07-08T11:20:54;98143.97;;;34.97;25.28
19884;BME280;10104;50.732;10.174;2023-07-08T11:23:25;98144.38;;;35.32;24.46
19884;BME280;10104;50.732;10.174;2023-07-08T11:25:50;98143.69;;;35.35;24.74
19884;BME280;10104;50.732;10.174;2023-07-08T11:28:17;98134.50;;;35.30;23.76
19884;BME280;10104;50.732;10.174;2023-07-08T11:30:41;98130.25;;;35.69;23.74
19884;BME280;10104;50.732;10.174;2023-07-08T11:33:06;98130.44;;;36.01;23.37
19884;BME280;10104;50.732;10.174;2023-07-08T11:35:42;98124.31;;;36.07;24.24
19884;BME280;10104;50.732;10.174;2023-07-08T11:38:05;98125.34;;;36.43;23.65
19884;BME280;10104;50.732;10.174;2023-07-08T11:40:31;98137.41;;;36.94;22.92
19884;BME280;10104;50.732;10.174;2023-07-08T11:43:03;98137.81;;;37.24;22.23
19884;BME280;10104;50.732;10.174;2023-07-08T11:47:53;98105.41;;;38.26;21.41
19884;BME280;10104;50.732;10.174;2023-07-08T11:50:22;98114.44;;;38.84;22.33
19884;BME280;10104;50.732;10.174;2023-07-08T11:55:55;98108.63;;;40.51;19.70
19884;BME280;10104;50.732;10.174;2023-07-08T11:58:24;98100.84;;;41.48;18.69
19884;BME280;10104;50.732;10.174;2023-07-08T12:00:54;98103.31;;;42.36;18.40
19884;BME280;10104;50.732;10.174;2023-07-08T12:03:20;98099.06;;;42.88;18.56
19884;BME280;10104;50.732;10.174;2023-07-08T12:05:43;98103.06;;;43.69;17.01
19884;BME280;10104;50.732;10.174;2023-07-08T12:08:15;98087.16;;;44.53;16.97
19884;BME280;10104;50.732;10.174;2023-07-08T12:13:03;98089.72;;;45.81;15.70
19884;BME280;10104;50.732;10.174;2023-07-08T12:15:31;98091.13;;;46.64;15.76
19884;BME280;10104;50.732;10.174;2023-07-08T12:18:06;98091.84;;;46.95;15.75
19884;BME280;10104;50.732;10.174;2023-07-08T12:20:32;98089.22;;;47.77;14.88
19884;BME280;10104;50.732;10.174;2023-07-08T12:22:54;98085.44;;;48.07;14.86
19884;BME280;10104;50.732;10.174;2023-07-08T12:25:18;98093.25;;;48.72;14.36
19884;BME280;10104;50.732;10.174;2023-07-08T12:27:40;98090.59;;;49.17;14.33
19884;BME280;10104;50.732;10.174;2023-07-08T12:30:02;98086.72;;;49.11;13.62
19884;BME280;10104;50.732;10.174;2023-07-08T12:32:24;98089.16;;;50.28;13.36
19884;BME280;10104;50.732;10.174;2023-07-08T12:34:47;98086.22;;;50.31;12.97
19884;BME280;10104;50.732;10.174;2023-07-08T12:37:12;98078.91;;;51.22;13.29
19884;BME280;10104;50.732;10.174;2023-07-08T12:39:34;98072.16;;;51.76;12.55
19884;BME280;10104;50.732;10.174;2023-07-08T12:41:56;98084.50;;;52.66;12.22
19884;BME280;10104;50.732;10.174;2023-07-08T12:44:22;98073.31;;;52.53;11.90
19884;BME280;10104;50.732;10.174;2023-07-08T12:46:46;98067.97;;;52.55;12.51
19884;BME280;10104;50.732;10.174;2023-07-08T12:49:08;98073.94;;;52.97;12.40
19884;BME280;10104;50.732;10.174;2023-07-08T12:51:30;98063.28;;;52.30;12.39
19884;BME280;10104;50.732;10.174;2023-07-08T12:53:52;98061.28;;;51.87;12.34
19884;BME280;10104;50.732;10.174;2023-07-08T12:56:15;98065.44;;;51.61;12.63
19884;BME280;10104;50.732;10.174;2023-07-08T12:58:42;98065.91;;;52.86;12.17
19884;BME280;10104;50.732;10.174;2023-07-08T13:01:05;98073.78;;;52.51;12.31
19884;BME280;10104;50.732;10.174;2023-07-08T13:03:34;98055.75;;;52.67;12.64
19884;BME280;10104;50.732;10.174;2023-07-08T13:05:57;98057.31;;;54.18;11.44
19884;BME280;10104;50.732;10.174;2023-07-08T13:08:24;98052.31;;;53.94;11.88
19884;BME280;10104;50.732;10.174;2023-07-08T13:10:47;98057.09;;;55.05;11.19
19884;BME280;10104;50.732;10.174;2023-07-08T13:13:19;98051.69;;;53.81;11.37
19884;BME280;10104;50.732;10.174;2023-07-08T13:15:43;98057.09;;;52.93;12.17
19884;BME280;10104;50.732;10.174;2023-07-08T13:18:14;98045.25;;;53.62;11.54
19884;BME280;10104;50.732;10.174;2023-07-08T13:20:38;98044.34;;;52.80;11.48